sensor_id;sensor_type;location;lat;lon;timestamp;P1;durP1;ratioP1;P2;durP2;ratioP2
75189;SDS011;69198;44.694;37.790;2024-02-21T00:00:15;19.15;;;7.00;;
75189;SDS011;69198;44.694;37.790;2024-02-21T00:01:17;16.75;;;5.55;;
75189;SDS011;69198;44.694;37.790;2024-02-21T00:02:20;21.00;;;6.00;;
75189;SDS011;69198;44.694;37.790;2024-02-21T00:03:21;20.58;;;6.05;;
75189;SDS011;69198;44.694;37.790;2024-02-21T00:04:22;17.55;;;5.63;;
75189;SDS011;69198;44.694;37.790;2024-02-21T00:05:23;18.27;;;5.47;;
75189;SDS011;69198;44.694;37.790;2024-02-21T00:06:24;19.35;;;5.90;;
75189;SDS011;69198;44.694;37.790;2024-02-21T00:07:26;19.47;;;6.03;;
75189;SDS011;69198;44.694;37.790;2024-02-21T00:08:27;17.23;;;5.65;;
75189;SDS011;69198;44.694;37.790;2024-02-21T00:09:28;19.40;;;6.40;;
75189;SDS011;69198;44.694;37.790;2024-02-21T00:10:29;22.52;;;6.78;;
75189;SDS011;69198;44.694;37.790;2024-02-21T00:11:32;19.05;;;6.43;;
75189;SDS011;69198;44.694;37.790;2024-02-21T00:12:33;21.83;;;7.50;;
75189;SDS011;69198;44.694;37.790;2024-02-21T00:13:34;19.52;;;6.70;;
75189;SDS011;69198;44.694;37.790;2024-02-21T00:14:35;23.20;;;6.10;;
75189;SDS011;69198;44.694;37.790;2024-02-21T00:15:35;18.07;;;5.93;;
75189;SDS011;69198;44.694;37.790;2024-02-21T00:16:37;16.48;;;5.60;;
75189;SDS011;69198;44.694;37.790;2024-02-21T00:17:38;20.88;;;7.22;;
75189;SDS011;69198;44.694;37.790;2024-02-21T00:18:39;22.45;;;6.50;;
75189;SDS011;69198;44.694;37.790;2024-02-21T00:19:40;18.60;;;5.90;;
75189;SDS011;69198;44.694;37.790;2024-02-21T00:20:41;20.52;;;6.97;;
75189;SDS011;69198;44.694;37.790;2024-02-21T00:21:42;22.30;;;6.35;;
75189;SDS011;69198;44.694;37.790;2024-02-21T00:22:44;18.63;;;6.38;;
75189;SDS011;69198;44.694;37.790;2024-02-21T00:23:45;20.30;;;6.43;;
75189;SDS011;69198;44.694;37.790;2024-02-21T00:24:50;20.60;;;6.18;;
75189;SDS011;69198;44.694;37.790;2024-02-21T00:25:51;18.73;;;6.45;;
75189;SDS011;69198;44.694;37.790;2024-02-21T00:26:53;19.23;;;6.75;;
75189;SDS011;69198;44.694;37.790;2024-02-21T00:27:55;17.92;;;6.00;;
75189;SDS011;69198;44.694;37.790;2024-02-21T00:28:55;19.55;;;7.07;;
75189;SDS011;69198;44.694;37.790;2024-02-21T00:29:56;25.65;;;7.32;;
75189;SDS011;69198;44.694;37.790;2024-02-21T00:30:57;19.70;;;6.68;;
75189;SDS011;69198;44.694;37.790;2024-02-21T00:31:58;21.77;;;6.50;;
75189;SDS011;69198;44.694;37.790;2024-02-21T00:32:59;15.75;;;6.03;;
75189;SDS011;69198;44.694;37.790;2024-02-21T00:34:00;20.50;;;6.78;;
75189;SDS011;69198;44.694;37.790;2024-02-21T00:35:01;22.70;;;6.68;;
75189;SDS011;69198;44.694;37.790;2024-02-21T00:36:03;18.75;;;7.32;;
75189;SDS011;69198;44.694;37.790;2024-02-21T00:37:04;20.33;;;6.78;;
75189;SDS011;69198;44.694;37.790;2024-02-21T00:38:05;21.23;;;6.75;;
75189;SDS011;69198;44.694;37.790;2024-02-21T00:39:06;18.20;;;5.80;;
75189;SDS011;69198;44.694;37.790;2024-02-21T00:40:07;21.92;;;6.40;;
75189;SDS011;69198;44.694;37.790;2024-02-21T00:41:08;20.98;;;6.47;;
75189;SDS011;69198;44.694;37.790;2024-02-21T00:42:09;19.55;;;6.57;;
75189;SDS011;69198;44.694;37.790;2024-02-21T00:43:10;15.70;;;5.60;;
75189;SDS011;69198;44.694;37.790;2024-02-21T00:44:11;19.23;;;6.93;;
75189;SDS011;69198;44.694;37.790;2024-02-21T00:45:13;19.15;;;7.18;;
75189;SDS011;69198;44.694;37.790;2024-02-21T00:46:14;21.20;;;7.07;;
75189;SDS011;69198;44.694;37.790;2024-02-21T00:47:15;20.60;;;7.30;;
75189;SDS011;69198;44.694;37.790;2024-02-21T00:48:16;18.15;;;6.10;;
75189;SDS011;69198;44.694;37.790;2024-02-21T00:49:16;20.65;;;6.47;;
75189;SDS011;69198;44.694;37.790;2024-02-21T00:50:18;22.90;;;6.80;;
75189;SDS011;69198;44.694;37.790;2024-02-21T00:51:19;21.17;;;6.57;;
75189;SDS011;69198;44.694;37.790;2024-02-21T00:52:20;19.58;;;5.88;;
75189;SDS011;69198;44.694;37.790;2024-02-21T00:53:21;20.35;;;6.53;;
75189;SDS011;69198;44.694;37.790;2024-02-21T00:54:22;20.83;;;7.03;;
75189;SDS011;69198;44.694;37.790;2024-02-21T00:55:23;20.80;;;5.77;;
75189;SDS011;69198;44.694;37.790;2024-02-21T00:56:24;21.55;;;6.00;;
75189;SDS011;69198;44.694;37.790;2024-02-21T00:57:25;23.02;;;6.95;;
75189;SDS011;69198;44.694;37.790;2024-02-21T00:58:27;18.95;;;6.38;;
75189;SDS011;69198;44.694;37.790;2024-02-21T00:59:28;19.27;;;5.88;;
75189;SDS011;69198;44.694;37.790;2024-02-21T01:00:29;23.42;;;7.40;;
75189;SDS011;69198;44.694;37.790;2024-02-21T01:01:30;21.43;;;7.17;;
75189;SDS011;69198;44.694;37.790;2024-02-21T01:02:30;21.93;;;6.70;;
75189;SDS011;69198;44.694;37.790;2024-02-21T01:03:31;19.88;;;6.38;;
75189;SDS011;69198;44.694;37.790;2024-02-21T01:04:32;20.55;;;6.53;;
75189;SDS011;69198;44.694;37.790;2024-02-21T01:05:35;17.55;;;6.10;;
75189;SDS011;69198;44.694;37.790;2024-02-21T01:06:36;26.80;;;8.18;;
75189;SDS011;69198;44.694;37.790;2024-02-21T01:07:37;20.52;;;6.22;;
75189;SDS011;69198;44.694;37.790;2024-02-21T01:08:38;21.23;;;6.63;;
75189;SDS011;69198;44.694;37.790;2024-02-21T01:09:39;22.30;;;6.97;;
75189;SDS011;69198;44.694;37.790;2024-02-21T01:10:40;23.73;;;7.28;;
75189;SDS011;69198;44.694;37.790;2024-02-21T01:11:41;21.38;;;6.40;;
75189;SDS011;69198;44.694;37.790;2024-02-21T01:12:42;21.55;;;6.57;;
75189;SDS011;69198;44.694;37.790;2024-02-21T01:13:43;22.40;;;6.60;;
75189;SDS011;69198;44.694;37.790;2024-02-21T01:14:45;19.73;;;6.47;;
75189;SDS011;69198;44.694;37.790;2024-02-21T01:15:49;21.63;;;6.80;;
75189;SDS011;69198;44.694;37.790;2024-02-21T01:16:50;21.37;;;6.73;;
75189;SDS011;69198;44.694;37.790;2024-02-21T01:17:51;21.92;;;7.25;;
75189;SDS011;69198;44.694;37.790;2024-02-21T01:18:55;22.45;;;7.82;;
75189;SDS011;69198;44.694;37.790;2024-02-21T01:19:56;22.17;;;7.72;;
75189;SDS011;69198;44.694;37.790;2024-02-21T01:20:57;23.15;;;7.60;;
75189;SDS011;69198;44.694;37.790;2024-02-21T01:21:57;22.45;;;7.63;;
75189;SDS011;69198;44.694;37.790;2024-02-21T01:22:59;19.27;;;6.95;;
75189;SDS011;69198;44.694;37.790;2024-02-21T01:23:59;21.57;;;6.73;;
75189;SDS011;69198;44.694;37.790;2024-02-21T01:25:00;18.70;;;6.30;;
75189;SDS011;69198;44.694;37.790;2024-02-21T01:26:02;21.48;;;7.32;;
75189;SDS011;69198;44.694;37.790;2024-02-21T01:27:04;24.70;;;7.18;;
75189;SDS011;69198;44.694;37.790;2024-02-21T01:28:05;22.23;;;7.40;;
75189;SDS011;69198;44.694;37.790;2024-02-21T01:29:06;20.15;;;7.03;;
75189;SDS011;69198;44.694;37.790;2024-02-21T01:30:07;28.40;;;7.57;;
75189;SDS011;69198;44.694;37.790;2024-02-21T01:31:09;22.80;;;6.75;;
75189;SDS011;69198;44.694;37.790;2024-02-21T01:32:10;22.63;;;7.13;;
75189;SDS011;69198;44.694;37.790;2024-02-21T01:33:11;22.23;;;7.33;;
75189;SDS011;69198;44.694;37.790;2024-02-21T01:34:13;23.27;;;6.72;;
75189;SDS011;69198;44.694;37.790;2024-02-21T01:35:14;19.55;;;6.53;;
75189;SDS011;69198;44.694;37.790;2024-02-21T01:36:15;23.40;;;6.85;;
75189;SDS011;69198;44.694;37.790;2024-02-21T01:37:16;24.05;;;7.13;;
75189;SDS011;69198;44.694;37.790;2024-02-21T01:38:17;23.30;;;6.93;;
75189;SDS011;69198;44.694;37.790;2024-02-21T01:39:18;22.10;;;7.25;;
75189;SDS011;69198;44.694;37.790;2024-02-21T01:40:19;21.42;;;6.82;;
75189;SDS011;69198;44.694;37.790;2024-02-21T01:41:20;18.53;;;6.27;;
75189;SDS011;69198;44.694;37.790;2024-02-21T01:42:21;21.42;;;6.90;;
75189;SDS011;69198;44.694;37.790;2024-02-21T01:43:22;22.20;;;6.68;;
75189;SDS011;69198;44.694;37.790;2024-02-21T01:44:23;24.05;;;7.18;;
75189;SDS011;69198;44.694;37.790;2024-02-21T01:45:24;20.33;;;6.57;;
75189;SDS011;69198;44.694;37.790;2024-02-21T01:46:25;23.73;;;6.63;;
75189;SDS011;69198;44.694;37.790;2024-02-21T01:47:28;18.92;;;6.80;;
75189;SDS011;69198;44.694;37.790;2024-02-21T01:48:29;24.50;;;7.87;;
75189;SDS011;69198;44.694;37.790;2024-02-21T01:49:31;21.17;;;6.60;;
75189;SDS011;69198;44.694;37.790;2024-02-21T01:50:32;26.30;;;7.75;;
75189;SDS011;69198;44.694;37.790;2024-02-21T01:51:33;24.63;;;7.18;;
75189;SDS011;69198;44.694;37.790;2024-02-21T01:52:35;21.88;;;7.15;;
75189;SDS011;69198;44.694;37.790;2024-02-21T01:53:37;23.77;;;7.18;;
75189;SDS011;69198;44.694;37.790;2024-02-21T01:54:43;20.33;;;6.15;;
75189;SDS011;69198;44.694;37.790;2024-02-21T01:55:48;24.92;;;7.47;;
75189;SDS011;69198;44.694;37.790;2024-02-21T01:56:49;19.95;;;6.45;;
75189;SDS011;69198;44.694;37.790;2024-02-21T01:57:51;20.92;;;6.28;;
75189;SDS011;69198;44.694;37.790;2024-02-21T01:58:52;24.97;;;7.43;;
75189;SDS011;69198;44.694;37.790;2024-02-21T01:59:54;27.60;;;7.50;;
75189;SDS011;69198;44.694;37.790;2024-02-21T02:00:56;22.98;;;7.13;;
75189;SDS011;69198;44.694;37.790;2024-02-21T02:01:57;27.02;;;7.53;;
75189;SDS011;69198;44.694;37.790;2024-02-21T02:02:59;23.33;;;6.90;;
75189;SDS011;69198;44.694;37.790;2024-02-21T02:04:00;22.08;;;6.85;;
75189;SDS011;69198;44.694;37.790;2024-02-21T02:05:01;21.23;;;6.60;;
75189;SDS011;69198;44.694;37.790;2024-02-21T02:06:04;20.52;;;6.88;;
75189;SDS011;69198;44.694;37.790;2024-02-21T02:07:07;23.30;;;6.88;;
75189;SDS011;69198;44.694;37.790;2024-02-21T02:08:08;22.13;;;7.10;;
75189;SDS011;69198;44.694;37.790;2024-02-21T02:09:09;21.13;;;6.50;;
75189;SDS011;69198;44.694;37.790;2024-02-21T02:10:10;23.23;;;7.43;;
75189;SDS011;69198;44.694;37.790;2024-02-21T02:11:13;22.95;;;7.20;;
75189;SDS011;69198;44.694;37.790;2024-02-21T02:12:14;24.95;;;7.40;;
75189;SDS011;69198;44.694;37.790;2024-02-21T02:13:15;24.08;;;7.15;;
75189;SDS011;69198;44.694;37.790;2024-02-21T02:14:16;25.75;;;7.65;;
75189;SDS011;69198;44.694;37.790;2024-02-21T02:15:17;27.02;;;7.68;;
75189;SDS011;69198;44.694;37.790;2024-02-21T02:16:18;31.55;;;7.35;;
75189;SDS011;69198;44.694;37.790;2024-02-21T02:17:19;26.63;;;7.50;;
75189;SDS011;69198;44.694;37.790;2024-02-21T02:18:20;24.30;;;7.03;;
75189;SDS011;69198;44.694;37.790;2024-02-21T02:19:21;25.48;;;8.57;;
75189;SDS011;69198;44.694;37.790;2024-02-21T02:20:22;18.52;;;5.85;;
75189;SDS011;69198;44.694;37.790;2024-02-21T02:21:29;23.90;;;6.93;;
75189;SDS011;69198;44.694;37.790;2024-02-21T02:22:32;25.30;;;7.20;;
75189;SDS011;69198;44.694;37.790;2024-02-21T02:23:37;23.67;;;6.95;;
75189;SDS011;69198;44.694;37.790;2024-02-21T02:24:38;22.83;;;7.05;;
75189;SDS011;69198;44.694;37.790;2024-02-21T02:25:39;23.07;;;6.60;;
75189;SDS011;69198;44.694;37.790;2024-02-21T02:26:40;21.75;;;6.57;;
75189;SDS011;69198;44.694;37.790;2024-02-21T02:27:42;23.85;;;7.35;;
75189;SDS011;69198;44.694;37.790;2024-02-21T02:28:45;21.50;;;6.32;;
75189;SDS011;69198;44.694;37.790;2024-02-21T02:29:46;23.08;;;7.20;;
75189;SDS011;69198;44.694;37.790;2024-02-21T02:30:47;22.02;;;7.53;;
75189;SDS011;69198;44.694;37.790;2024-02-21T02:31:49;22.67;;;7.32;;
75189;SDS011;69198;44.694;37.790;2024-02-21T02:32:50;24.45;;;7.30;;
75189;SDS011;69198;44.694;37.790;2024-02-21T02:33:51;23.63;;;7.50;;
75189;SDS011;69198;44.694;37.790;2024-02-21T02:34:52;27.27;;;8.03;;
75189;SDS011;69198;44.694;37.790;2024-02-21T02:35:53;23.85;;;6.95;;
75189;SDS011;69198;44.694;37.790;2024-02-21T02:36:54;24.27;;;7.53;;
75189;SDS011;69198;44.694;37.790;2024-02-21T02:37:55;25.00;;;7.53;;
75189;SDS011;69198;44.694;37.790;2024-02-21T02:38:56;23.65;;;7.80;;
75189;SDS011;69198;44.694;37.790;2024-02-21T02:39:57;22.58;;;6.43;;
75189;SDS011;69198;44.694;37.790;2024-02-21T02:40:58;24.52;;;7.30;;
75189;SDS011;69198;44.694;37.790;2024-02-21T02:41:59;25.50;;;7.40;;
75189;SDS011;69198;44.694;37.790;2024-02-21T02:43:00;27.15;;;7.53;;
75189;SDS011;69198;44.694;37.790;2024-02-21T02:44:02;26.10;;;8.25;;
75189;SDS011;69198;44.694;37.790;2024-02-21T02:45:03;28.27;;;8.25;;
75189;SDS011;69198;44.694;37.790;2024-02-21T02:46:05;26.00;;;7.40;;
75189;SDS011;69198;44.694;37.790;2024-02-21T02:47:06;20.67;;;6.70;;
75189;SDS011;69198;44.694;37.790;2024-02-21T02:48:07;23.50;;;7.63;;
75189;SDS011;69198;44.694;37.790;2024-02-21T02:49:08;26.77;;;7.85;;
75189;SDS011;69198;44.694;37.790;2024-02-21T02:50:09;27.27;;;7.97;;
75189;SDS011;69198;44.694;37.790;2024-02-21T02:51:11;19.37;;;6.30;;
75189;SDS011;69198;44.694;37.790;2024-02-21T02:52:12;23.23;;;7.43;;
75189;SDS011;69198;44.694;37.790;2024-02-21T02:53:13;25.58;;;7.53;;
75189;SDS011;69198;44.694;37.790;2024-02-21T02:54:14;24.55;;;7.43;;
75189;SDS011;69198;44.694;37.790;2024-02-21T02:55:15;23.40;;;7.30;;
75189;SDS011;69198;44.694;37.790;2024-02-21T02:56:16;25.33;;;7.20;;
75189;SDS011;69198;44.694;37.790;2024-02-21T02:57:17;29.92;;;7.93;;
75189;SDS011;69198;44.694;37.790;2024-02-21T02:58:18;20.30;;;6.53;;
75189;SDS011;69198;44.694;37.790;2024-02-21T02:59:19;28.45;;;8.02;;
75189;SDS011;69198;44.694;37.790;2024-02-21T03:00:20;27.73;;;7.70;;
75189;SDS011;69198;44.694;37.790;2024-02-21T03:01:22;24.77;;;7.40;;
75189;SDS011;69198;44.694;37.790;2024-02-21T03:02:23;26.15;;;8.15;;
75189;SDS011;69198;44.694;37.790;2024-02-21T03:03:24;21.90;;;7.20;;
75189;SDS011;69198;44.694;37.790;2024-02-21T03:04:25;29.30;;;8.10;;
75189;SDS011;69198;44.694;37.790;2024-02-21T03:05:26;22.90;;;7.10;;
75189;SDS011;69198;44.694;37.790;2024-02-21T03:06:27;25.75;;;8.00;;
75189;SDS011;69198;44.694;37.790;2024-02-21T03:07:28;22.42;;;6.32;;
75189;SDS011;69198;44.694;37.790;2024-02-21T03:08:29;27.83;;;7.90;;
75189;SDS011;69198;44.694;37.790;2024-02-21T03:09:30;21.55;;;7.05;;
75189;SDS011;69198;44.694;37.790;2024-02-21T03:10:32;24.00;;;7.70;;
75189;SDS011;69198;44.694;37.790;2024-02-21T03:11:33;25.70;;;7.95;;
75189;SDS011;69198;44.694;37.790;2024-02-21T03:12:34;23.70;;;7.53;;
75189;SDS011;69198;44.694;37.790;2024-02-21T03:13:36;28.45;;;8.15;;
75189;SDS011;69198;44.694;37.790;2024-02-21T03:14:37;25.27;;;7.28;;
75189;SDS011;69198;44.694;37.790;2024-02-21T03:15:39;25.50;;;6.90;;
75189;SDS011;69198;44.694;37.790;2024-02-21T03:16:40;26.52;;;8.13;;
75189;SDS011;69198;44.694;37.790;2024-02-21T03:17:41;22.70;;;7.37;;
75189;SDS011;69198;44.694;37.790;2024-02-21T03:18:42;26.05;;;7.68;;
75189;SDS011;69198;44.694;37.790;2024-02-21T03:19:43;24.88;;;8.05;;
75189;SDS011;69198;44.694;37.790;2024-02-21T03:20:44;22.52;;;7.65;;
75189;SDS011;69198;44.694;37.790;2024-02-21T03:21:45;22.50;;;7.18;;
75189;SDS011;69198;44.694;37.790;2024-02-21T03:22:46;24.88;;;8.35;;
75189;SDS011;69198;44.694;37.790;2024-02-21T03:23:48;24.40;;;7.78;;
75189;SDS011;69198;44.694;37.790;2024-02-21T03:24:49;28.73;;;8.30;;
75189;SDS011;69198;44.694;37.790;2024-02-21T03:25:50;23.03;;;7.03;;
75189;SDS011;69198;44.694;37.790;2024-02-21T03:26:51;27.05;;;7.43;;
75189;SDS011;69198;44.694;37.790;2024-02-21T03:27:51;24.17;;;7.90;;
75189;SDS011;69198;44.694;37.790;2024-02-21T03:28:52;30.42;;;8.52;;
75189;SDS011;69198;44.694;37.790;2024-02-21T03:29:53;26.30;;;7.43;;
75189;SDS011;69198;44.694;37.790;2024-02-21T03:30:54;23.42;;;7.15;;
75189;SDS011;69198;44.694;37.790;2024-02-21T03:31:55;25.93;;;7.47;;
75189;SDS011;69198;44.694;37.790;2024-02-21T03:32:56;26.33;;;7.93;;
75189;SDS011;69198;44.694;37.790;2024-02-21T03:33:57;23.85;;;7.18;;
75189;SDS011;69198;44.694;37.790;2024-02-21T03:34:58;25.75;;;8.85;;
75189;SDS011;69198;44.694;37.790;2024-02-21T03:35:59;17.45;;;6.05;;
75189;SDS011;69198;44.694;37.790;2024-02-21T03:37:00;23.20;;;6.93;;
75189;SDS011;69198;44.694;37.790;2024-02-21T03:38:02;25.30;;;7.07;;
75189;SDS011;69198;44.694;37.790;2024-02-21T03:39:03;25.40;;;7.43;;
75189;SDS011;69198;44.694;37.790;2024-02-21T03:40:08;25.67;;;8.40;;
75189;SDS011;69198;44.694;37.790;2024-02-21T03:41:09;23.85;;;7.07;;
75189;SDS011;69198;44.694;37.790;2024-02-21T03:42:10;23.48;;;6.95;;
75189;SDS011;69198;44.694;37.790;2024-02-21T03:43:11;25.83;;;7.70;;
75189;SDS011;69198;44.694;37.790;2024-02-21T03:44:12;23.02;;;6.95;;
75189;SDS011;69198;44.694;37.790;2024-02-21T03:45:13;20.60;;;7.55;;
75189;SDS011;69198;44.694;37.790;2024-02-21T03:46:14;26.13;;;8.20;;
75189;SDS011;69198;44.694;37.790;2024-02-21T03:47:16;23.42;;;7.25;;
75189;SDS011;69198;44.694;37.790;2024-02-21T03:48:17;23.30;;;7.60;;
75189;SDS011;69198;44.694;37.790;2024-02-21T03:49:18;21.58;;;6.60;;
75189;SDS011;69198;44.694;37.790;2024-02-21T03:50:19;25.25;;;7.68;;
75189;SDS011;69198;44.694;37.790;2024-02-21T03:51:20;28.77;;;9.13;;
75189;SDS011;69198;44.694;37.790;2024-02-21T03:52:21;23.85;;;7.85;;
75189;SDS011;69198;44.694;37.790;2024-02-21T03:53:22;23.63;;;7.93;;
75189;SDS011;69198;44.694;37.790;2024-02-21T03:54:23;24.80;;;7.22;;
75189;SDS011;69198;44.694;37.790;2024-02-21T03:55:24;22.50;;;6.93;;
75189;SDS011;69198;44.694;37.790;2024-02-21T03:56:25;21.02;;;6.70;;
75189;SDS011;69198;44.694;37.790;2024-02-21T03:57:26;27.92;;;8.32;;
75189;SDS011;69198;44.694;37.790;2024-02-21T03:58:27;23.58;;;8.07;;
75189;SDS011;69198;44.694;37.790;2024-02-21T03:59:28;24.58;;;8.05;;
75189;SDS011;69198;44.694;37.790;2024-02-21T04:00:29;24.93;;;7.77;;
75189;SDS011;69198;44.694;37.790;2024-02-21T04:01:30;26.13;;;8.60;;
75189;SDS011;69198;44.694;37.790;2024-02-21T04:02:31;23.90;;;7.30;;
75189;SDS011;69198;44.694;37.790;2024-02-21T04:03:32;29.25;;;8.45;;
75189;SDS011;69198;44.694;37.790;2024-02-21T04:04:34;26.15;;;8.50;;
75189;SDS011;69198;44.694;37.790;2024-02-21T04:05:37;29.98;;;8.52;;
75189;SDS011;69198;44.694;37.790;2024-02-21T04:06:51;28.02;;;8.15;;
75189;SDS011;69198;44.694;37.790;2024-02-21T04:07:53;26.98;;;9.02;;
75189;SDS011;69198;44.694;37.790;2024-02-21T04:08:54;33.22;;;8.50;;
75189;SDS011;69198;44.694;37.790;2024-02-21T04:09:55;26.03;;;8.13;;
75189;SDS011;69198;44.694;37.790;2024-02-21T04:10:57;27.30;;;8.20;;
75189;SDS011;69198;44.694;37.790;2024-02-21T04:11:57;22.52;;;7.05;;
75189;SDS011;69198;44.694;37.790;2024-02-21T04:12:58;29.70;;;8.98;;
75189;SDS011;69198;44.694;37.790;2024-02-21T04:13:59;25.13;;;8.10;;
75189;SDS011;69198;44.694;37.790;2024-02-21T04:15:00;23.63;;;7.85;;
75189;SDS011;69198;44.694;37.790;2024-02-21T04:16:01;25.10;;;8.00;;
75189;SDS011;69198;44.694;37.790;2024-02-21T04:17:03;24.53;;;7.77;;
75189;SDS011;69198;44.694;37.790;2024-02-21T04:18:05;28.87;;;8.47;;
75189;SDS011;69198;44.694;37.790;2024-02-21T04:19:07;21.15;;;7.03;;
75189;SDS011;69198;44.694;37.790;2024-02-21T04:20:13;20.08;;;6.72;;
75189;SDS011;69198;44.694;37.790;2024-02-21T04:21:17;30.70;;;8.07;;
75189;SDS011;69198;44.694;37.790;2024-02-21T04:22:18;24.38;;;7.05;;
75189;SDS011;69198;44.694;37.790;2024-02-21T04:23:19;22.73;;;7.22;;
75189;SDS011;69198;44.694;37.790;2024-02-21T04:24:20;21.23;;;6.38;;
75189;SDS011;69198;44.694;37.790;2024-02-21T04:25:21;31.58;;;8.55;;
75189;SDS011;69198;44.694;37.790;2024-02-21T04:26:22;22.87;;;6.70;;
75189;SDS011;69198;44.694;37.790;2024-02-21T04:27:23;25.13;;;7.38;;
75189;SDS011;69198;44.694;37.790;2024-02-21T04:28:24;24.30;;;6.45;;
75189;SDS011;69198;44.694;37.790;2024-02-21T04:29:25;27.00;;;7.80;;
75189;SDS011;69198;44.694;37.790;2024-02-21T04:30:28;24.05;;;7.55;;
75189;SDS011;69198;44.694;37.790;2024-02-21T04:31:29;21.92;;;7.28;;
75189;SDS011;69198;44.694;37.790;2024-02-21T04:32:32;23.48;;;7.35;;
75189;SDS011;69198;44.694;37.790;2024-02-21T04:33:33;20.80;;;6.68;;
75189;SDS011;69198;44.694;37.790;2024-02-21T04:34:34;22.33;;;6.72;;
75189;SDS011;69198;44.694;37.790;2024-02-21T04:35:36;21.95;;;7.30;;
75189;SDS011;69198;44.694;37.790;2024-02-21T04:36:37;23.65;;;7.60;;
75189;SDS011;69198;44.694;37.790;2024-02-21T04:37:38;21.27;;;6.03;;
75189;SDS011;69198;44.694;37.790;2024-02-21T04:38:39;20.45;;;6.22;;
75189;SDS011;69198;44.694;37.790;2024-02-21T04:39:41;21.77;;;6.03;;
75189;SDS011;69198;44.694;37.790;2024-02-21T04:40:42;23.50;;;6.90;;
75189;SDS011;69198;44.694;37.790;2024-02-21T04:41:43;21.52;;;5.97;;
75189;SDS011;69198;44.694;37.790;2024-02-21T04:42:44;20.20;;;6.15;;
75189;SDS011;69198;44.694;37.790;2024-02-21T04:43:48;19.87;;;6.10;;
75189;SDS011;69198;44.694;37.790;2024-02-21T04:44:49;24.23;;;6.70;;
75189;SDS011;69198;44.694;37.790;2024-02-21T04:45:50;18.58;;;6.50;;
75189;SDS011;69198;44.694;37.790;2024-02-21T04:46:53;21.13;;;6.65;;
75189;SDS011;69198;44.694;37.790;2024-02-21T04:47:54;20.77;;;6.95;;
75189;SDS011;69198;44.694;37.790;2024-02-21T04:48:55;20.55;;;7.03;;
75189;SDS011;69198;44.694;37.790;2024-02-21T04:49:56;21.80;;;6.85;;
75189;SDS011;69198;44.694;37.790;2024-02-21T04:50:57;21.52;;;7.05;;
75189;SDS011;69198;44.694;37.790;2024-02-21T04:51:58;20.40;;;5.67;;
75189;SDS011;69198;44.694;37.790;2024-02-21T04:53:00;23.17;;;6.47;;
75189;SDS011;69198;44.694;37.790;2024-02-21T04:54:01;16.67;;;5.05;;
75189;SDS011;69198;44.694;37.790;2024-02-21T04:55:02;21.45;;;5.43;;
75189;SDS011;69198;44.694;37.790;2024-02-21T04:56:03;20.05;;;5.80;;
75189;SDS011;69198;44.694;37.790;2024-02-21T04:57:04;21.25;;;5.88;;
75189;SDS011;69198;44.694;37.790;2024-02-21T04:58:05;20.58;;;6.47;;
75189;SDS011;69198;44.694;37.790;2024-02-21T04:59:06;20.40;;;6.50;;
75189;SDS011;69198;44.694;37.790;2024-02-21T05:00:07;20.07;;;5.17;;
75189;SDS011;69198;44.694;37.790;2024-02-21T05:01:09;16.08;;;5.43;;
75189;SDS011;69198;44.694;37.790;2024-02-21T05:02:10;18.60;;;5.97;;
75189;SDS011;69198;44.694;37.790;2024-02-21T05:03:12;19.25;;;6.10;;
75189;SDS011;69198;44.694;37.790;2024-02-21T05:04:13;18.15;;;5.65;;
75189;SDS011;69198;44.694;37.790;2024-02-21T05:05:14;20.27;;;6.30;;
75189;SDS011;69198;44.694;37.790;2024-02-21T05:06:17;17.85;;;6.10;;
75189;SDS011;69198;44.694;37.790;2024-02-21T05:07:18;18.47;;;5.47;;
75189;SDS011;69198;44.694;37.790;2024-02-21T05:08:20;16.70;;;5.25;;
75189;SDS011;69198;44.694;37.790;2024-02-21T05:09:20;17.15;;;4.97;;
75189;SDS011;69198;44.694;37.790;2024-02-21T05:10:22;19.42;;;5.93;;
75189;SDS011;69198;44.694;37.790;2024-02-21T05:11:23;17.52;;;5.57;;
75189;SDS011;69198;44.694;37.790;2024-02-21T05:12:24;19.65;;;6.53;;
75189;SDS011;69198;44.694;37.790;2024-02-21T05:13:25;19.20;;;5.80;;
75189;SDS011;69198;44.694;37.790;2024-02-21T05:14:26;21.25;;;6.57;;
75189;SDS011;69198;44.694;37.790;2024-02-21T05:15:27;19.87;;;6.50;;
75189;SDS011;69198;44.694;37.790;2024-02-21T05:16:28;19.63;;;6.75;;
75189;SDS011;69198;44.694;37.790;2024-02-21T05:17:29;19.40;;;6.25;;
75189;SDS011;69198;44.694;37.790;2024-02-21T05:18:30;15.63;;;5.55;;
75189;SDS011;69198;44.694;37.790;2024-02-21T05:19:31;18.73;;;5.88;;
75189;SDS011;69198;44.694;37.790;2024-02-21T05:20:32;17.80;;;5.60;;
75189;SDS011;69198;44.694;37.790;2024-02-21T05:21:33;15.77;;;5.47;;
75189;SDS011;69198;44.694;37.790;2024-02-21T05:22:34;19.17;;;5.60;;
75189;SDS011;69198;44.694;37.790;2024-02-21T05:23:35;17.10;;;6.10;;
75189;SDS011;69198;44.694;37.790;2024-02-21T05:24:38;19.20;;;5.68;;
75189;SDS011;69198;44.694;37.790;2024-02-21T05:25:40;16.63;;;5.57;;
75189;SDS011;69198;44.694;37.790;2024-02-21T05:26:41;16.75;;;5.53;;
75189;SDS011;69198;44.694;37.790;2024-02-21T05:27:42;17.38;;;5.50;;
75189;SDS011;69198;44.694;37.790;2024-02-21T05:28:43;15.73;;;5.22;;
75189;SDS011;69198;44.694;37.790;2024-02-21T05:29:44;15.63;;;5.32;;
75189;SDS011;69198;44.694;37.790;2024-02-21T05:30:45;16.37;;;5.57;;
75189;SDS011;69198;44.694;37.790;2024-02-21T05:32:56;15.82;;;5.25;;
75189;SDS011;69198;44.694;37.790;2024-02-21T05:33:57;12.07;;;4.50;;
75189;SDS011;69198;44.694;37.790;2024-02-21T05:34:58;17.42;;;5.63;;
75189;SDS011;69198;44.694;37.790;2024-02-21T05:35:59;14.10;;;4.85;;
75189;SDS011;69198;44.694;37.790;2024-02-21T05:37:00;13.65;;;4.88;;
75189;SDS011;69198;44.694;37.790;2024-02-21T05:38:01;14.45;;;5.43;;
75189;SDS011;69198;44.694;37.790;2024-02-21T05:39:07;14.15;;;4.78;;
75189;SDS011;69198;44.694;37.790;2024-02-21T05:40:08;15.20;;;5.33;;
75189;SDS011;69198;44.694;37.790;2024-02-21T05:41:10;16.60;;;5.78;;
75189;SDS011;69198;44.694;37.790;2024-02-21T05:42:11;17.25;;;5.32;;
75189;SDS011;69198;44.694;37.790;2024-02-21T05:43:13;19.30;;;5.85;;
75189;SDS011;69198;44.694;37.790;2024-02-21T05:44:14;16.90;;;5.75;;
75189;SDS011;69198;44.694;37.790;2024-02-21T05:45:15;17.65;;;6.25;;
75189;SDS011;69198;44.694;37.790;2024-02-21T05:46:19;16.00;;;6.00;;
75189;SDS011;69198;44.694;37.790;2024-02-21T05:47:20;16.98;;;5.07;;
75189;SDS011;69198;44.694;37.790;2024-02-21T05:48:21;13.57;;;5.22;;
75189;SDS011;69198;44.694;37.790;2024-02-21T05:49:22;14.45;;;5.05;;
75189;SDS011;69198;44.694;37.790;2024-02-21T05:50:24;15.77;;;5.30;;
75189;SDS011;69198;44.694;37.790;2024-02-21T05:51:25;15.75;;;5.15;;
75189;SDS011;69198;44.694;37.790;2024-02-21T05:52:26;16.77;;;4.82;;
75189;SDS011;69198;44.694;37.790;2024-02-21T05:53:27;14.95;;;5.05;;
75189;SDS011;69198;44.694;37.790;2024-02-21T05:54:28;12.88;;;4.60;;
75189;SDS011;69198;44.694;37.790;2024-02-21T05:55:29;12.93;;;4.72;;
75189;SDS011;69198;44.694;37.790;2024-02-21T05:56:30;13.98;;;4.35;;
75189;SDS011;69198;44.694;37.790;2024-02-21T05:57:31;12.80;;;4.17;;
75189;SDS011;69198;44.694;37.790;2024-02-21T05:58:32;17.85;;;5.13;;
75189;SDS011;69198;44.694;37.790;2024-02-21T05:59:33;15.25;;;4.72;;